Terminal Aerodrome Forecast
Issued by NWS

Home | Current Version | Previous Version | Text Only | Print | Product List | Glossary On
Versions: 1 2 3 4 5 6 7 8 9 10 11 12 13 14 15 16 17 18 19 20 21 22 23 24 25 26 27
000
FTUS43 KIND 280800 AAA
TAFLAF
TAF AMD
KLAF 280834Z 2809/2906 VRB03KT 4SM BR SKC
      TEMPO 2809/2813 1SM BR
     FM281600 10006KT P6SM SCT040
      AMD LTD TO CLD VIS AND WIND TIL 281300=

USA.gov is the U.S. government's official web portal to all federal, state and local government web resources and services.